sensor_id;sensor_type;location;lat;lon;timestamp;temperature;humidity
61323;DHT22;47203;48.428;11.974;2024-03-08T00:01:40;18.30;69.90
61323;DHT22;47203;48.428;11.974;2024-03-08T00:03:44;18.30;69.90
61323;DHT22;47203;48.428;11.974;2024-03-08T00:05:45;18.30;69.90
61323;DHT22;47203;48.428;11.974;2024-03-08T00:07:46;18.20;69.80
61323;DHT22;47203;48.428;11.974;2024-03-08T00:09:49;18.20;69.80
61323;DHT22;47203;48.428;11.974;2024-03-08T00:11:52;18.30;69.90
61323;DHT22;47203;48.428;11.974;2024-03-08T00:13:54;18.30;69.90
61323;DHT22;47203;48.428;11.974;2024-03-08T00:15:56;18.30;69.90
61323;DHT22;47203;48.428;11.974;2024-03-08T00:17:58;18.30;69.90
61323;DHT22;47203;48.428;11.974;2024-03-08T00:20:00;18.30;69.90
61323;DHT22;47203;48.428;11.974;2024-03-08T00:22:04;18.20;69.80
61323;DHT22;47203;48.428;11.974;2024-03-08T00:24:06;18.20;69.80
61323;DHT22;47203;48.428;11.974;2024-03-08T00:26:07;18.30;69.90
61323;DHT22;47203;48.428;11.974;2024-03-08T00:28:11;18.20;69.90
61323;DHT22;47203;48.428;11.974;2024-03-08T00:30:15;18.20;69.90
61323;DHT22;47203;48.428;11.974;2024-03-08T00:32:16;18.20;69.90
61323;DHT22;47203;48.428;11.974;2024-03-08T00:34:21;18.20;69.90
61323;DHT22;47203;48.428;11.974;2024-03-08T00:36:23;18.30;70.00
61323;DHT22;47203;48.428;11.974;2024-03-08T00:38:25;18.30;70.00
61323;DHT22;47203;48.428;11.974;2024-03-08T00:40:27;18.20;69.90
61323;DHT22;47203;48.428;11.974;2024-03-08T00:42:29;18.20;69.90
61323;DHT22;47203;48.428;11.974;2024-03-08T00:44:35;18.20;69.90
61323;DHT22;47203;48.428;11.974;2024-03-08T00:46:38;18.20;69.90
61323;DHT22;47203;48.428;11.974;2024-03-08T00:48:39;18.20;69.90
61323;DHT22;47203;48.428;11.974;2024-03-08T00:50:43;18.20;70.00
61323;DHT22;47203;48.428;11.974;2024-03-08T00:52:46;18.30;70.00
61323;DHT22;47203;48.428;11.974;2024-03-08T00:54:47;18.20;69.90
61323;DHT22;47203;48.428;11.974;2024-03-08T00:56:48;18.20;69.90
61323;DHT22;47203;48.428;11.974;2024-03-08T00:58:50;18.20;69.90
61323;DHT22;47203;48.428;11.974;2024-03-08T01:00:54;18.20;69.90
61323;DHT22;47203;48.428;11.974;2024-03-08T01:02:57;18.20;69.90
61323;DHT22;47203;48.428;11.974;2024-03-08T01:05:00;18.20;70.00
61323;DHT22;47203;48.428;11.974;2024-03-08T01:07:02;18.20;70.00
61323;DHT22;47203;48.428;11.974;2024-03-08T01:09:03;18.20;69.90
61323;DHT22;47203;48.428;11.974;2024-03-08T01:11:07;18.20;70.00
61323;DHT22;47203;48.428;11.974;2024-03-08T01:13:09;18.20;70.00
61323;DHT22;47203;48.428;11.974;2024-03-08T01:15:11;18.20;70.00
61323;DHT22;47203;48.428;11.974;2024-03-08T01:17:14;18.20;70.00
61323;DHT22;47203;48.428;11.974;2024-03-08T01:19:15;18.20;70.00
61323;DHT22;47203;48.428;11.974;2024-03-08T01:21:17;18.20;70.00
61323;DHT22;47203;48.428;11.974;2024-03-08T01:23:18;18.20;70.00
61323;DHT22;47203;48.428;11.974;2024-03-08T01:25:20;18.20;70.00
61323;DHT22;47203;48.428;11.974;2024-03-08T01:27:23;18.20;70.00
61323;DHT22;47203;48.428;11.974;2024-03-08T01:29:25;18.20;70.00
61323;DHT22;47203;48.428;11.974;2024-03-08T01:31:28;18.20;70.00
61323;DHT22;47203;48.428;11.974;2024-03-08T01:33:30;18.20;70.00
61323;DHT22;47203;48.428;11.974;2024-03-08T01:35:32;18.20;70.00
61323;DHT22;47203;48.428;11.974;2024-03-08T01:37:34;18.30;70.10
61323;DHT22;47203;48.428;11.974;2024-03-08T01:39:35;18.20;70.00
61323;DHT22;47203;48.428;11.974;2024-03-08T01:41:38;18.20;70.00
61323;DHT22;47203;48.428;11.974;2024-03-08T01:43:40;18.20;70.00
61323;DHT22;47203;48.428;11.974;2024-03-08T01:45:42;18.20;70.00
61323;DHT22;47203;48.428;11.974;2024-03-08T01:47:44;18.20;70.10
61323;DHT22;47203;48.428;11.974;2024-03-08T01:49:49;18.20;70.10
61323;DHT22;47203;48.428;11.974;2024-03-08T01:51:52;18.20;70.10
61323;DHT22;47203;48.428;11.974;2024-03-08T01:53:53;18.20;70.10
61323;DHT22;47203;48.428;11.974;2024-03-08T01:55:55;18.20;70.10
61323;DHT22;47203;48.428;11.974;2024-03-08T01:57:58;18.20;70.10
61323;DHT22;47203;48.428;11.974;2024-03-08T02:00:01;18.30;70.10
61323;DHT22;47203;48.428;11.974;2024-03-08T02:02:06;18.30;70.10
61323;DHT22;47203;48.428;11.974;2024-03-08T02:04:09;18.20;70.10
61323;DHT22;47203;48.428;11.974;2024-03-08T02:06:13;18.20;70.10
61323;DHT22;47203;48.428;11.974;2024-03-08T02:08:16;18.20;70.10
61323;DHT22;47203;48.428;11.974;2024-03-08T02:10:19;18.20;70.10
61323;DHT22;47203;48.428;11.974;2024-03-08T02:12:22;18.30;70.10
61323;DHT22;47203;48.428;11.974;2024-03-08T02:14:24;18.20;70.10
61323;DHT22;47203;48.428;11.974;2024-03-08T02:16:26;18.20;70.10
61323;DHT22;47203;48.428;11.974;2024-03-08T02:18:28;18.30;70.10
61323;DHT22;47203;48.428;11.974;2024-03-08T02:20:32;18.30;70.20
61323;DHT22;47203;48.428;11.974;2024-03-08T02:22:33;18.30;70.10
61323;DHT22;47203;48.428;11.974;2024-03-08T02:24:34;18.30;70.10
61323;DHT22;47203;48.428;11.974;2024-03-08T02:26:36;18.20;70.10
61323;DHT22;47203;48.428;11.974;2024-03-08T02:28:38;18.30;70.20
61323;DHT22;47203;48.428;11.974;2024-03-08T02:30:39;18.30;70.20
61323;DHT22;47203;48.428;11.974;2024-03-08T02:32:41;18.30;70.20
61323;DHT22;47203;48.428;11.974;2024-03-08T02:34:42;18.30;70.10
61323;DHT22;47203;48.428;11.974;2024-03-08T02:36:46;18.30;70.20
61323;DHT22;47203;48.428;11.974;2024-03-08T02:38:48;18.30;70.20
61323;DHT22;47203;48.428;11.974;2024-03-08T02:40:50;18.30;70.10
61323;DHT22;47203;48.428;11.974;2024-03-08T02:42:53;18.30;70.20
61323;DHT22;47203;48.428;11.974;2024-03-08T02:44:54;18.30;70.20
61323;DHT22;47203;48.428;11.974;2024-03-08T02:46:56;18.30;70.20
61323;DHT22;47203;48.428;11.974;2024-03-08T02:48:58;18.30;70.20
61323;DHT22;47203;48.428;11.974;2024-03-08T02:51:00;18.30;70.20
61323;DHT22;47203;48.428;11.974;2024-03-08T02:53:05;18.30;70.10
61323;DHT22;47203;48.428;11.974;2024-03-08T02:55:06;18.30;70.20
61323;DHT22;47203;48.428;11.974;2024-03-08T02:57:09;18.30;70.20
61323;DHT22;47203;48.428;11.974;2024-03-08T02:59:14;18.30;70.20
61323;DHT22;47203;48.428;11.974;2024-03-08T03:01:17;18.30;70.20
61323;DHT22;47203;48.428;11.974;2024-03-08T03:03:20;18.30;70.20
61323;DHT22;47203;48.428;11.974;2024-03-08T03:05:22;18.30;70.20
61323;DHT22;47203;48.428;11.974;2024-03-08T03:07:25;18.30;70.20
61323;DHT22;47203;48.428;11.974;2024-03-08T03:09:29;18.30;70.20
61323;DHT22;47203;48.428;11.974;2024-03-08T03:11:36;18.30;70.20
61323;DHT22;47203;48.428;11.974;2024-03-08T03:13:37;18.30;70.20
61323;DHT22;47203;48.428;11.974;2024-03-08T03:15:39;18.30;70.20
61323;DHT22;47203;48.428;11.974;2024-03-08T03:17:45;18.30;70.20
61323;DHT22;47203;48.428;11.974;2024-03-08T03:19:47;18.30;70.20
61323;DHT22;47203;48.428;11.974;2024-03-08T03:21:52;18.30;70.20
61323;DHT22;47203;48.428;11.974;2024-03-08T03:23:53;18.30;70.20
61323;DHT22;47203;48.428;11.974;2024-03-08T03:25:57;18.30;70.20
61323;DHT22;47203;48.428;11.974;2024-03-08T03:27:58;18.30;70.20
61323;DHT22;47203;48.428;11.974;2024-03-08T03:30:00;18.30;70.20
61323;DHT22;47203;48.428;11.974;2024-03-08T03:32:21;18.30;70.20
61323;DHT22;47203;48.428;11.974;2024-03-08T03:34:23;18.30;70.20
61323;DHT22;47203;48.428;11.974;2024-03-08T03:36:25;18.30;70.80
61323;DHT22;47203;48.428;11.974;2024-03-08T03:38:28;18.30;70.20
61323;DHT22;47203;48.428;11.974;2024-03-08T03:40:30;18.30;70.20
61323;DHT22;47203;48.428;11.974;2024-03-08T03:42:33;18.30;70.20
61323;DHT22;47203;48.428;11.974;2024-03-08T03:44:35;18.30;70.20
61323;DHT22;47203;48.428;11.974;2024-03-08T03:46:37;18.30;70.20
61323;DHT22;47203;48.428;11.974;2024-03-08T03:48:44;18.30;70.20
61323;DHT22;47203;48.428;11.974;2024-03-08T03:50:46;18.30;70.20
61323;DHT22;47203;48.428;11.974;2024-03-08T03:52:48;18.30;70.20
61323;DHT22;47203;48.428;11.974;2024-03-08T03:54:50;18.30;70.20
61323;DHT22;47203;48.428;11.974;2024-03-08T03:56:51;18.30;70.20
61323;DHT22;47203;48.428;11.974;2024-03-08T03:58:54;18.30;70.30
61323;DHT22;47203;48.428;11.974;2024-03-08T04:00:56;18.30;70.20
61323;DHT22;47203;48.428;11.974;2024-03-08T04:02:58;18.30;70.20
61323;DHT22;47203;48.428;11.974;2024-03-08T04:05:00;18.30;70.20
61323;DHT22;47203;48.428;11.974;2024-03-08T04:07:02;18.30;70.20
61323;DHT22;47203;48.428;11.974;2024-03-08T04:09:05;18.30;70.30
61323;DHT22;47203;48.428;11.974;2024-03-08T04:11:07;18.30;70.30
61323;DHT22;47203;48.428;11.974;2024-03-08T04:13:09;18.30;70.20
61323;DHT22;47203;48.428;11.974;2024-03-08T04:15:12;18.30;70.30
61323;DHT22;47203;48.428;11.974;2024-03-08T04:17:14;18.30;70.20
61323;DHT22;47203;48.428;11.974;2024-03-08T04:19:14;18.30;70.20
61323;DHT22;47203;48.428;11.974;2024-03-08T04:21:16;18.30;70.20
61323;DHT22;47203;48.428;11.974;2024-03-08T04:23:19;18.30;70.30
61323;DHT22;47203;48.428;11.974;2024-03-08T04:25:21;18.30;70.30
61323;DHT22;47203;48.428;11.974;2024-03-08T04:27:23;18.30;70.30
61323;DHT22;47203;48.428;11.974;2024-03-08T04:29:25;18.30;70.30
61323;DHT22;47203;48.428;11.974;2024-03-08T04:31:28;18.30;70.30
61323;DHT22;47203;48.428;11.974;2024-03-08T04:33:31;18.30;70.30
61323;DHT22;47203;48.428;11.974;2024-03-08T04:35:33;18.30;70.30
61323;DHT22;47203;48.428;11.974;2024-03-08T04:37:33;18.30;70.30
61323;DHT22;47203;48.428;11.974;2024-03-08T04:39:35;18.30;70.30
61323;DHT22;47203;48.428;11.974;2024-03-08T04:41:37;18.30;70.30
61323;DHT22;47203;48.428;11.974;2024-03-08T04:43:39;18.30;70.30
61323;DHT22;47203;48.428;11.974;2024-03-08T04:45:42;18.30;70.30
61323;DHT22;47203;48.428;11.974;2024-03-08T04:47:48;18.30;70.30
61323;DHT22;47203;48.428;11.974;2024-03-08T04:49:50;18.30;70.30
61323;DHT22;47203;48.428;11.974;2024-03-08T04:51:52;18.30;70.30
61323;DHT22;47203;48.428;11.974;2024-03-08T04:53:54;18.30;70.30
61323;DHT22;47203;48.428;11.974;2024-03-08T04:55:57;18.30;70.30
61323;DHT22;47203;48.428;11.974;2024-03-08T04:57:59;18.30;70.30
61323;DHT22;47203;48.428;11.974;2024-03-08T05:00:01;18.30;70.30
61323;DHT22;47203;48.428;11.974;2024-03-08T05:02:02;18.30;70.30
61323;DHT22;47203;48.428;11.974;2024-03-08T05:04:06;18.30;70.30
61323;DHT22;47203;48.428;11.974;2024-03-08T05:06:07;18.30;70.30
61323;DHT22;47203;48.428;11.974;2024-03-08T05:08:09;18.30;70.30
61323;DHT22;47203;48.428;11.974;2024-03-08T05:10:11;18.30;70.30
61323;DHT22;47203;48.428;11.974;2024-03-08T05:12:17;18.30;70.30
61323;DHT22;47203;48.428;11.974;2024-03-08T05:14:19;18.30;70.30
61323;DHT22;47203;48.428;11.974;2024-03-08T05:16:21;18.30;70.40
61323;DHT22;47203;48.428;11.974;2024-03-08T05:18:24;18.20;70.30
61323;DHT22;47203;48.428;11.974;2024-03-08T05:20:26;18.30;70.40
61323;DHT22;47203;48.428;11.974;2024-03-08T05:22:28;18.30;70.40
61323;DHT22;47203;48.428;11.974;2024-03-08T05:24:30;18.30;70.40
61323;DHT22;47203;48.428;11.974;2024-03-08T05:26:32;18.30;70.40
61323;DHT22;47203;48.428;11.974;2024-03-08T05:28:34;18.30;70.40
61323;DHT22;47203;48.428;11.974;2024-03-08T05:30:35;18.30;70.40
61323;DHT22;47203;48.428;11.974;2024-03-08T05:32:40;18.30;70.40
61323;DHT22;47203;48.428;11.974;2024-03-08T05:34:44;18.30;70.40
61323;DHT22;47203;48.428;11.974;2024-03-08T05:36:48;18.30;70.40
61323;DHT22;47203;48.428;11.974;2024-03-08T05:38:50;18.30;70.40
61323;DHT22;47203;48.428;11.974;2024-03-08T05:40:52;18.30;70.40
61323;DHT22;47203;48.428;11.974;2024-03-08T05:42:54;18.30;70.40
61323;DHT22;47203;48.428;11.974;2024-03-08T05:44:55;18.30;70.40
61323;DHT22;47203;48.428;11.974;2024-03-08T05:46:59;18.30;70.40
61323;DHT22;47203;48.428;11.974;2024-03-08T05:49:01;18.30;70.40
61323;DHT22;47203;48.428;11.974;2024-03-08T05:51:14;18.30;70.40
61323;DHT22;47203;48.428;11.974;2024-03-08T05:53:17;18.20;70.30
61323;DHT22;47203;48.428;11.974;2024-03-08T05:55:19;18.20;70.30
61323;DHT22;47203;48.428;11.974;2024-03-08T05:57:21;18.30;70.40
61323;DHT22;47203;48.428;11.974;2024-03-08T05:59:24;18.30;70.40
61323;DHT22;47203;48.428;11.974;2024-03-08T06:01:26;18.30;70.40
61323;DHT22;47203;48.428;11.974;2024-03-08T06:03:28;18.30;70.40
61323;DHT22;47203;48.428;11.974;2024-03-08T06:05:30;18.30;70.40
61323;DHT22;47203;48.428;11.974;2024-03-08T06:07:31;18.30;70.40
61323;DHT22;47203;48.428;11.974;2024-03-08T06:09:34;18.30;70.40
61323;DHT22;47203;48.428;11.974;2024-03-08T06:11:37;18.30;70.40
61323;DHT22;47203;48.428;11.974;2024-03-08T06:13:39;18.30;70.40
61323;DHT22;47203;48.428;11.974;2024-03-08T06:15:41;18.30;70.40
61323;DHT22;47203;48.428;11.974;2024-03-08T06:17:43;18.30;70.40
61323;DHT22;47203;48.428;11.974;2024-03-08T06:19:45;18.30;70.40
61323;DHT22;47203;48.428;11.974;2024-03-08T06:21:47;18.30;70.40
61323;DHT22;47203;48.428;11.974;2024-03-08T06:23:49;18.30;70.40
61323;DHT22;47203;48.428;11.974;2024-03-08T06:25:52;18.30;70.40
61323;DHT22;47203;48.428;11.974;2024-03-08T06:27:54;18.30;70.40
61323;DHT22;47203;48.428;11.974;2024-03-08T06:29:56;18.30;70.40
61323;DHT22;47203;48.428;11.974;2024-03-08T06:31:57;18.30;70.40
61323;DHT22;47203;48.428;11.974;2024-03-08T06:34:00;18.30;70.40
61323;DHT22;47203;48.428;11.974;2024-03-08T06:36:02;18.30;70.40
61323;DHT22;47203;48.428;11.974;2024-03-08T06:38:04;18.30;70.40
61323;DHT22;47203;48.428;11.974;2024-03-08T06:40:06;18.30;70.40
61323;DHT22;47203;48.428;11.974;2024-03-08T06:42:14;18.30;70.50
61323;DHT22;47203;48.428;11.974;2024-03-08T06:44:16;18.20;70.40
61323;DHT22;47203;48.428;11.974;2024-03-08T06:46:22;18.30;70.50
61323;DHT22;47203;48.428;11.974;2024-03-08T06:48:23;18.30;70.40
61323;DHT22;47203;48.428;11.974;2024-03-08T06:50:25;18.30;70.10
61323;DHT22;47203;48.428;11.974;2024-03-08T06:52:27;18.30;70.40
61323;DHT22;47203;48.428;11.974;2024-03-08T06:54:29;18.30;70.40
61323;DHT22;47203;48.428;11.974;2024-03-08T06:56:31;18.30;70.40
61323;DHT22;47203;48.428;11.974;2024-03-08T06:58:34;18.30;70.40
61323;DHT22;47203;48.428;11.974;2024-03-08T07:00:36;18.20;70.40
61323;DHT22;47203;48.428;11.974;2024-03-08T07:02:38;18.20;70.40
61323;DHT22;47203;48.428;11.974;2024-03-08T07:04:40;18.20;70.40
61323;DHT22;47203;48.428;11.974;2024-03-08T07:06:42;18.30;70.50
61323;DHT22;47203;48.428;11.974;2024-03-08T07:08:44;18.20;70.50
61323;DHT22;47203;48.428;11.974;2024-03-08T07:10:46;18.20;70.40
61323;DHT22;47203;48.428;11.974;2024-03-08T07:12:49;18.20;70.40
61323;DHT22;47203;48.428;11.974;2024-03-08T07:14:52;18.20;70.40
61323;DHT22;47203;48.428;11.974;2024-03-08T07:16:54;18.30;70.50
61323;DHT22;47203;48.428;11.974;2024-03-08T07:18:56;18.20;70.40
61323;DHT22;47203;48.428;11.974;2024-03-08T07:20:59;18.20;70.40
61323;DHT22;47203;48.428;11.974;2024-03-08T07:23:02;18.20;70.40
61323;DHT22;47203;48.428;11.974;2024-03-08T07:25:04;18.20;70.40
61323;DHT22;47203;48.428;11.974;2024-03-08T07:27:20;18.20;70.40
61323;DHT22;47203;48.428;11.974;2024-03-08T07:29:21;18.10;70.40
61323;DHT22;47203;48.428;11.974;2024-03-08T07:31:25;18.20;70.40
61323;DHT22;47203;48.428;11.974;2024-03-08T07:33:35;18.20;70.50
61323;DHT22;47203;48.428;11.974;2024-03-08T07:35:38;18.20;70.50
61323;DHT22;47203;48.428;11.974;2024-03-08T07:37:40;18.20;70.50
61323;DHT22;47203;48.428;11.974;2024-03-08T07:39:42;18.20;70.50
61323;DHT22;47203;48.428;11.974;2024-03-08T07:41:44;18.20;70.50
61323;DHT22;47203;48.428;11.974;2024-03-08T07:43:45;18.20;70.50
61323;DHT22;47203;48.428;11.974;2024-03-08T07:45:47;18.20;70.50
61323;DHT22;47203;48.428;11.974;2024-03-08T07:47:50;18.20;70.50
61323;DHT22;47203;48.428;11.974;2024-03-08T07:49:53;18.10;70.50
61323;DHT22;47203;48.428;11.974;2024-03-08T07:51:55;18.20;70.50
61323;DHT22;47203;48.428;11.974;2024-03-08T07:53:58;18.20;70.80
61323;DHT22;47203;48.428;11.974;2024-03-08T07:56:00;18.20;70.60
61323;DHT22;47203;48.428;11.974;2024-03-08T07:58:02;18.10;70.50
61323;DHT22;47203;48.428;11.974;2024-03-08T08:00:05;18.20;70.60
61323;DHT22;47203;48.428;11.974;2024-03-08T08:02:08;18.10;70.50
61323;DHT22;47203;48.428;11.974;2024-03-08T08:04:12;18.20;70.60
61323;DHT22;47203;48.428;11.974;2024-03-08T08:06:18;18.20;70.50
61323;DHT22;47203;48.428;11.974;2024-03-08T08:08:20;18.10;70.50
61323;DHT22;47203;48.428;11.974;2024-03-08T08:10:21;18.10;70.50
61323;DHT22;47203;48.428;11.974;2024-03-08T08:12:25;18.10;70.50
61323;DHT22;47203;48.428;11.974;2024-03-08T08:14:28;18.20;70.60
61323;DHT22;47203;48.428;11.974;2024-03-08T08:16:31;18.20;70.60
61323;DHT22;47203;48.428;11.974;2024-03-08T08:18:32;18.20;70.60
61323;DHT22;47203;48.428;11.974;2024-03-08T08:20:36;18.10;70.60
61323;DHT22;47203;48.428;11.974;2024-03-08T08:22:38;18.10;70.60
61323;DHT22;47203;48.428;11.974;2024-03-08T08:24:41;18.10;70.60
61323;DHT22;47203;48.428;11.974;2024-03-08T08:26:42;18.10;70.60
61323;DHT22;47203;48.428;11.974;2024-03-08T08:28:44;18.10;70.60
61323;DHT22;47203;48.428;11.974;2024-03-08T08:30:46;18.10;70.60
61323;DHT22;47203;48.428;11.974;2024-03-08T08:32:49;18.10;70.60
61323;DHT22;47203;48.428;11.974;2024-03-08T08:34:50;18.10;70.50
61323;DHT22;47203;48.428;11.974;2024-03-08T08:36:54;18.10;70.50
61323;DHT22;47203;48.428;11.974;2024-03-08T08:38:56;18.10;70.50
61323;DHT22;47203;48.428;11.974;2024-03-08T08:40:58;18.10;70.50
61323;DHT22;47203;48.428;11.974;2024-03-08T08:43:02;18.10;70.50
61323;DHT22;47203;48.428;11.974;2024-03-08T08:45:05;18.10;70.60
61323;DHT22;47203;48.428;11.974;2024-03-08T08:47:08;18.10;70.50
61323;DHT22;47203;48.428;11.974;2024-03-08T08:49:10;18.10;71.10
61323;DHT22;47203;48.428;11.974;2024-03-08T08:51:14;18.10;70.60
61323;DHT22;47203;48.428;11.974;2024-03-08T08:53:18;18.10;70.60
61323;DHT22;47203;48.428;11.974;2024-03-08T08:55:19;18.10;70.50
61323;DHT22;47203;48.428;11.974;2024-03-08T08:57:21;18.10;70.50
61323;DHT22;47203;48.428;11.974;2024-03-08T08:59:23;18.10;70.50
61323;DHT22;47203;48.428;11.974;2024-03-08T09:01:25;18.10;70.60
61323;DHT22;47203;48.428;11.974;2024-03-08T09:03:27;18.10;70.60
61323;DHT22;47203;48.428;11.974;2024-03-08T09:05:30;18.10;70.60
61323;DHT22;47203;48.428;11.974;2024-03-08T09:07:32;18.10;70.50
61323;DHT22;47203;48.428;11.974;2024-03-08T09:09:35;18.10;70.50
61323;DHT22;47203;48.428;11.974;2024-03-08T09:11:38;18.10;70.50
61323;DHT22;47203;48.428;11.974;2024-03-08T09:13:43;18.10;70.50
61323;DHT22;47203;48.428;11.974;2024-03-08T09:15:46;18.10;70.60
61323;DHT22;47203;48.428;11.974;2024-03-08T09:17:47;18.10;70.60
61323;DHT22;47203;48.428;11.974;2024-03-08T09:19:49;18.00;70.50
61323;DHT22;47203;48.428;11.974;2024-03-08T09:21:51;18.10;70.60
61323;DHT22;47203;48.428;11.974;2024-03-08T09:23:53;18.10;70.60
61323;DHT22;47203;48.428;11.974;2024-03-08T09:25:57;18.00;70.50
61323;DHT22;47203;48.428;11.974;2024-03-08T09:28:04;18.00;70.50
61323;DHT22;47203;48.428;11.974;2024-03-08T09:30:06;18.00;70.50
61323;DHT22;47203;48.428;11.974;2024-03-08T09:32:10;18.10;70.60
61323;DHT22;47203;48.428;11.974;2024-03-08T09:34:12;18.10;70.60
61323;DHT22;47203;48.428;11.974;2024-03-08T09:36:14;18.10;70.60
61323;DHT22;47203;48.428;11.974;2024-03-08T09:38:16;18.00;70.60
61323;DHT22;47203;48.428;11.974;2024-03-08T09:40:18;18.00;70.50
61323;DHT22;47203;48.428;11.974;2024-03-08T09:42:21;18.00;70.50
61323;DHT22;47203;48.428;11.974;2024-03-08T09:44:23;18.00;70.50
61323;DHT22;47203;48.428;11.974;2024-03-08T09:46:25;18.00;70.50
61323;DHT22;47203;48.428;11.974;2024-03-08T09:48:27;18.00;70.50
61323;DHT22;47203;48.428;11.974;2024-03-08T09:50:29;18.00;70.50
61323;DHT22;47203;48.428;11.974;2024-03-08T09:52:33;18.00;70.60
61323;DHT22;47203;48.428;11.974;2024-03-08T09:54:35;18.00;70.60
61323;DHT22;47203;48.428;11.974;2024-03-08T09:56:37;18.00;70.60
61323;DHT22;47203;48.428;11.974;2024-03-08T09:58:43;18.10;70.60
61323;DHT22;47203;48.428;11.974;2024-03-08T10:01:03;18.00;70.60
61323;DHT22;47203;48.428;11.974;2024-03-08T10:03:06;18.00;70.60
61323;DHT22;47203;48.428;11.974;2024-03-08T10:05:09;18.00;70.60
61323;DHT22;47203;48.428;11.974;2024-03-08T10:07:11;18.10;70.70
61323;DHT22;47203;48.428;11.974;2024-03-08T10:09:12;18.00;70.60
61323;DHT22;47203;48.428;11.974;2024-03-08T10:11:14;18.00;70.60
61323;DHT22;47203;48.428;11.974;2024-03-08T10:13:16;18.10;70.70
61323;DHT22;47203;48.428;11.974;2024-03-08T10:15:21;18.10;70.70
61323;DHT22;47203;48.428;11.974;2024-03-08T10:17:24;18.00;70.70
61323;DHT22;47203;48.428;11.974;2024-03-08T10:19:27;18.00;70.70
61323;DHT22;47203;48.428;11.974;2024-03-08T10:21:30;18.00;70.70
61323;DHT22;47203;48.428;11.974;2024-03-08T10:23:33;18.00;70.70
61323;DHT22;47203;48.428;11.974;2024-03-08T10:25:35;18.10;70.70
61323;DHT22;47203;48.428;11.974;2024-03-08T10:27:40;18.00;70.70
61323;DHT22;47203;48.428;11.974;2024-03-08T10:29:42;18.00;70.70
61323;DHT22;47203;48.428;11.974;2024-03-08T10:31:47;18.10;70.70
61323;DHT22;47203;48.428;11.974;2024-03-08T10:33:50;18.10;70.70
61323;DHT22;47203;48.428;11.974;2024-03-08T10:35:52;18.00;70.70
61323;DHT22;47203;48.428;11.974;2024-03-08T10:37:56;18.10;70.70
61323;DHT22;47203;48.428;11.974;2024-03-08T10:40:02;18.00;70.70
61323;DHT22;47203;48.428;11.974;2024-03-08T10:42:11;18.00;70.70
61323;DHT22;47203;48.428;11.974;2024-03-08T10:44:21;18.10;70.80
61323;DHT22;47203;48.428;11.974;2024-03-08T10:46:35;18.00;70.70
61323;DHT22;47203;48.428;11.974;2024-03-08T10:48:47;18.10;70.80
61323;DHT22;47203;48.428;11.974;2024-03-08T10:50:51;18.00;70.70
61323;DHT22;47203;48.428;11.974;2024-03-08T10:52:54;18.00;70.70
61323;DHT22;47203;48.428;11.974;2024-03-08T10:54:57;18.10;70.70
61323;DHT22;47203;48.428;11.974;2024-03-08T10:57:02;18.10;70.70
61323;DHT22;47203;48.428;11.974;2024-03-08T10:59:05;18.10;70.70
61323;DHT22;47203;48.428;11.974;2024-03-08T11:01:09;18.10;70.70
61323;DHT22;47203;48.428;11.974;2024-03-08T11:05:46;18.10;70.80
61323;DHT22;47203;48.428;11.974;2024-03-08T11:07:49;18.10;70.80
61323;DHT22;47203;48.428;11.974;2024-03-08T11:09:52;18.10;70.80
61323;DHT22;47203;48.428;11.974;2024-03-08T11:14:45;18.10;71.40
61323;DHT22;47203;48.428;11.974;2024-03-08T11:16:49;18.10;70.80
61323;DHT22;47203;48.428;11.974;2024-03-08T11:18:53;18.10;70.80
61323;DHT22;47203;48.428;11.974;2024-03-08T11:20:55;18.10;70.80
61323;DHT22;47203;48.428;11.974;2024-03-08T11:23:00;18.10;70.80
61323;DHT22;47203;48.428;11.974;2024-03-08T11:25:05;18.10;70.80
61323;DHT22;47203;48.428;11.974;2024-03-08T11:27:10;18.10;70.80
61323;DHT22;47203;48.428;11.974;2024-03-08T11:31:36;18.10;70.80
61323;DHT22;47203;48.428;11.974;2024-03-08T11:33:39;18.10;70.80
61323;DHT22;47203;48.428;11.974;2024-03-08T11:35:44;18.10;70.80
61323;DHT22;47203;48.428;11.974;2024-03-08T11:37:47;18.10;70.80
61323;DHT22;47203;48.428;11.974;2024-03-08T11:39:50;18.10;70.80
61323;DHT22;47203;48.428;11.974;2024-03-08T11:41:52;18.10;70.80
61323;DHT22;47203;48.428;11.974;2024-03-08T11:44:01;18.10;70.70
61323;DHT22;47203;48.428;11.974;2024-03-08T11:46:09;18.10;70.70
61323;DHT22;47203;48.428;11.974;2024-03-08T11:48:12;18.10;70.70
61323;DHT22;47203;48.428;11.974;2024-03-08T11:50:15;18.10;70.70
61323;DHT22;47203;48.428;11.974;2024-03-08T11:52:19;18.10;70.70
61323;DHT22;47203;48.428;11.974;2024-03-08T11:54:22;18.10;70.70
61323;DHT22;47203;48.428;11.974;2024-03-08T11:56:24;18.10;70.60
61323;DHT22;47203;48.428;11.974;2024-03-08T11:58:27;18.10;70.70
61323;DHT22;47203;48.428;11.974;2024-03-08T12:00:29;18.10;70.70
61323;DHT22;47203;48.428;11.974;2024-03-08T12:02:35;18.10;70.70
61323;DHT22;47203;48.428;11.974;2024-03-08T12:04:38;18.10;70.70
61323;DHT22;47203;48.428;11.974;2024-03-08T12:06:41;18.10;70.70
61323;DHT22;47203;48.428;11.974;2024-03-08T12:08:45;18.10;70.70
61323;DHT22;47203;48.428;11.974;2024-03-08T12:10:50;18.10;70.70
61323;DHT22;47203;48.428;11.974;2024-03-08T12:12:53;18.10;70.70
61323;DHT22;47203;48.428;11.974;2024-03-08T12:14:56;18.10;70.70
61323;DHT22;47203;48.428;11.974;2024-03-08T12:16:58;18.10;70.70
61323;DHT22;47203;48.428;11.974;2024-03-08T12:19:01;18.10;70.80
61323;DHT22;47203;48.428;11.974;2024-03-08T12:21:04;18.10;70.80
61323;DHT22;47203;48.428;11.974;2024-03-08T12:23:07;18.10;70.70
61323;DHT22;47203;48.428;11.974;2024-03-08T12:25:16;18.10;70.70
61323;DHT22;47203;48.428;11.974;2024-03-08T12:27:19;18.10;70.70
61323;DHT22;47203;48.428;11.974;2024-03-08T12:29:22;18.10;70.80
61323;DHT22;47203;48.428;11.974;2024-03-08T12:31:27;18.10;70.80
61323;DHT22;47203;48.428;11.974;2024-03-08T12:33:29;18.10;70.80
61323;DHT22;47203;48.428;11.974;2024-03-08T12:35:31;18.10;70.80
61323;DHT22;47203;48.428;11.974;2024-03-08T12:37:33;18.10;70.80
61323;DHT22;47203;48.428;11.974;2024-03-08T12:39:35;18.10;70.80
61323;DHT22;47203;48.428;11.974;2024-03-08T12:41:39;18.10;70.80
61323;DHT22;47203;48.428;11.974;2024-03-08T12:43:43;18.10;70.80
61323;DHT22;47203;48.428;11.974;2024-03-08T12:45:48;18.10;70.80
61323;DHT22;47203;48.428;11.974;2024-03-08T12:47:49;18.10;70.80
61323;DHT22;47203;48.428;11.974;2024-03-08T12:49:52;18.10;70.80
61323;DHT22;47203;48.428;11.974;2024-03-08T12:51:54;18.10;70.80